createdAt,value
2023-04-26T00:03:33.434Z,6.78
2023-04-26T00:08:36.076Z,6.92
2023-04-26T00:13:38.652Z,6.78
2023-04-26T00:18:43.164Z,6.78
2023-04-26T00:23:46.130Z,6.70
2023-04-26T00:28:48.654Z,6.65
2023-04-26T00:33:53.086Z,6.60
2023-04-26T00:38:55.759Z,6.54
2023-04-26T00:43:58.441Z,6.43
2023-04-26T00:49:02.465Z,6.45
2023-04-26T00:54:05.572Z,6.30
2023-04-26T00:59:08.307Z,6.18
2023-04-26T01:04:13.066Z,6.23
2023-04-26T01:09:16.409Z,6.21
2023-04-26T01:14:19.569Z,6.23
2023-04-26T01:19:23.483Z,6.20
2023-04-26T01:24:27.388Z,6.16
2023-04-26T01:29:30.779Z,6.16
2023-04-26T01:34:34.416Z,6.11
2023-04-26T01:39:38.472Z,5.97
2023-04-26T01:44:41.036Z,5.89
2023-04-26T01:49:43.745Z,5.84
2023-04-26T01:54:47.693Z,5.77
2023-04-26T01:59:50.242Z,5.81
2023-04-26T02:04:52.854Z,5.76
2023-04-26T02:09:57.681Z,5.64
2023-04-26T02:15:00.334Z,5.57
2023-04-26T02:20:04.829Z,5.57
2023-04-26T02:25:09.512Z,5.48
2023-04-26T02:30:12.922Z,5.49
2023-04-26T02:35:16.272Z,5.34
2023-04-26T02:40:20.703Z,5.28
2023-04-26T02:45:23.286Z,5.27
2023-04-26T02:50:25.828Z,5.26
2023-04-26T02:55:29.761Z,5.26
2023-04-26T03:00:34.014Z,5.14
2023-04-26T03:05:37.130Z,5.17
2023-04-26T03:10:41.206Z,4.99
2023-04-26T03:15:45.915Z,5.08
2023-04-26T03:20:48.956Z,5.04
2023-04-26T03:25:53.364Z,5.00
2023-04-26T03:30:56.336Z,4.73
2023-04-26T03:35:59.372Z,4.76
2023-04-26T03:41:03.588Z,4.80
2023-04-26T03:46:06.584Z,4.62
2023-04-26T03:51:09.355Z,4.59
2023-04-26T03:56:13.422Z,4.57
2023-04-26T04:01:16.276Z,4.59
2023-04-26T04:06:18.931Z,4.68
2023-04-26T04:11:22.964Z,4.79
2023-04-26T04:16:25.975Z,4.74
2023-04-26T04:21:28.719Z,4.80
2023-04-26T04:26:34.074Z,4.66
2023-04-26T04:31:38.360Z,4.70
2023-04-26T04:36:41.371Z,4.56
2023-04-26T04:41:48.026Z,4.61
2023-04-26T04:46:52.465Z,4.73
2023-04-26T04:51:56.090Z,4.66
2023-04-26T04:57:01.117Z,4.58
2023-04-26T05:02:04.302Z,4.74
2023-04-26T05:07:07.701Z,4.82
2023-04-26T05:12:12.831Z,4.91
2023-04-26T05:17:15.551Z,5.10
2023-04-26T05:22:21.131Z,5.16
2023-04-26T05:27:25.424Z,5.27
2023-04-26T07:08:42.067Z,7.60
2023-04-26T07:30:54.341Z,8.41
2023-04-26T10:17:57.631Z,10.35
2023-04-26T10:23:04.917Z,10.39
2023-04-26T10:28:09.372Z,10.37
2023-04-26T10:33:19.312Z,10.29
2023-04-26T10:38:27.230Z,10.36
2023-04-26T10:43:43.230Z,9.54
2023-04-26T10:48:50.151Z,10.57
2023-04-26T10:54:01.642Z,11.13
2023-04-26T11:04:21.545Z,11.25
2023-04-26T11:09:52.427Z,11.22
2023-04-26T11:15:02.613Z,11.11
2023-04-26T11:20:11.709Z,11.24
2023-04-26T11:25:16.808Z,11.15
2023-04-26T11:30:22.431Z,11.19
2023-04-26T11:35:31.415Z,10.77
2023-04-26T11:40:37.290Z,10.70
2023-04-26T11:45:45.692Z,11.49
2023-04-26T11:50:54.612Z,11.75
2023-04-26T11:55:58.675Z,11.85
2023-04-26T12:01:03.803Z,12.17
2023-04-26T12:06:17.094Z,12.14
2023-04-26T12:11:29.421Z,12.12
2023-04-26T12:16:50.504Z,11.74
2023-04-26T12:21:56.036Z,11.92
2023-04-26T12:27:00.392Z,12.11
2023-04-26T12:32:05.655Z,11.90
2023-04-26T12:37:28.806Z,11.48
2023-04-26T12:42:31.956Z,12.02
2023-04-26T12:47:35.484Z,11.92
2023-04-26T12:52:42.016Z,11.83
2023-04-26T12:57:46.201Z,11.63
2023-04-26T13:02:49.174Z,11.73
2023-04-26T13:07:53.369Z,11.54
2023-04-26T13:12:57.776Z,11.66
2023-04-26T13:18:01.229Z,11.44
2023-04-26T13:23:05.314Z,11.59
2023-04-26T13:28:08.235Z,11.55
2023-04-26T13:33:11.299Z,11.51
2023-04-26T13:38:16.782Z,11.50
2023-04-26T13:43:22.132Z,11.25
2023-04-26T13:48:24.705Z,11.45
2023-04-26T13:53:28.622Z,11.55
2023-04-26T13:58:31.366Z,11.53
2023-04-26T14:03:35.851Z,11.66
2023-04-26T14:08:41.870Z,11.64
2023-04-26T14:13:44.694Z,11.71
2023-04-26T14:18:48.536Z,11.55
2023-04-26T14:23:52.547Z,11.60
2023-04-26T14:28:55.188Z,11.68
2023-04-26T14:33:58.323Z,11.70
2023-04-26T14:39:02.942Z,11.52
2023-04-26T14:44:05.889Z,11.80
2023-04-26T14:49:08.522Z,11.97
2023-04-26T14:54:12.656Z,11.85
2023-04-26T14:59:15.446Z,11.55
2023-04-26T15:04:18.189Z,11.87
2023-04-26T15:09:25.805Z,12.32
2023-04-26T15:14:28.491Z,11.97
2023-04-26T15:19:32.454Z,12.24
2023-04-26T15:24:38.318Z,12.47
2023-04-26T15:29:41.234Z,12.45
2023-04-26T15:34:45.045Z,12.36
2023-04-26T15:39:49.038Z,12.42
2023-04-26T15:44:52.222Z,12.37
2023-04-26T15:49:55.179Z,11.97
2023-04-26T15:54:59.355Z,12.13
2023-04-26T16:00:02.591Z,11.94
2023-04-26T16:05:08.505Z,11.84
2023-04-26T16:10:13.398Z,11.53
2023-04-26T16:15:16.598Z,11.67
2023-04-26T16:20:19.349Z,11.66
2023-04-26T16:25:25.863Z,11.82
2023-04-26T16:30:29.128Z,11.74
2023-04-26T16:35:32.786Z,11.74
2023-04-26T16:40:36.768Z,11.41
2023-04-26T16:45:39.362Z,11.75
2023-04-26T16:50:42.244Z,11.60
2023-04-26T16:55:46.912Z,11.05
2023-04-26T17:00:51.607Z,11.68
2023-04-26T17:06:00.203Z,11.53
2023-04-26T17:11:04.386Z,11.65
2023-04-26T17:16:09.395Z,11.51
2023-04-26T17:21:12.218Z,11.60
2023-04-26T17:26:16.809Z,11.56
2023-04-26T17:31:19.511Z,11.49
2023-04-26T17:36:23.400Z,11.30
2023-04-26T17:41:30.216Z,11.17
2023-04-26T17:46:41.824Z,10.56
2023-04-26T17:51:44.533Z,11.22
2023-04-26T17:56:51.770Z,10.70
2023-04-26T18:01:56.473Z,10.71
2023-04-26T18:06:59.138Z,10.93
2023-04-26T18:12:05.597Z,9.58
2023-04-26T18:17:08.928Z,10.70
2023-04-26T18:22:13.680Z,10.55
2023-04-26T18:27:17.835Z,10.59
2023-04-26T18:32:27.205Z,10.31
2023-04-26T18:37:52.074Z,10.39
2023-04-26T18:42:56.215Z,10.25
2023-04-26T18:47:58.993Z,10.09
2023-04-26T18:53:02.908Z,10.20
2023-04-26T18:58:06.833Z,9.71
2023-04-26T19:03:09.802Z,10.19
2023-04-26T19:08:13.258Z,10.11
2023-04-26T19:13:18.628Z,10.04
2023-04-26T19:18:21.823Z,10.01
2023-04-26T19:23:24.561Z,9.45
2023-04-26T19:28:28.796Z,9.21
2023-04-26T19:33:32.333Z,9.58
2023-04-26T19:38:37.119Z,9.84
2023-04-26T19:43:41.174Z,9.80
2023-04-26T19:48:43.923Z,9.96
2023-04-26T19:53:48.487Z,9.89
2023-04-26T19:58:52.521Z,9.50
2023-04-26T20:03:55.425Z,9.55
2023-04-26T20:08:58.248Z,9.77
2023-04-26T20:14:03.092Z,9.81
2023-04-26T20:19:06.073Z,9.84
2023-04-26T20:24:09.390Z,9.51
2023-04-26T20:29:16.166Z,9.81
2023-04-26T20:34:22.138Z,8.33
2023-04-26T20:39:27.840Z,9.41
2023-04-26T20:44:32.195Z,9.62
2023-04-26T20:49:34.948Z,9.20
2023-04-26T20:54:37.717Z,9.33
2023-04-26T20:59:42.199Z,9.41
2023-04-26T21:04:45.186Z,9.32
2023-04-26T21:09:49.195Z,9.27
2023-04-26T21:14:53.503Z,8.56
2023-04-26T21:19:57.938Z,7.69
2023-04-26T21:25:04.335Z,9.23
2023-04-26T21:30:12.237Z,9.19
2023-04-26T21:35:15.012Z,9.05
2023-04-26T21:40:17.912Z,8.35
2023-04-26T21:45:21.998Z,9.01
2023-04-26T21:50:24.982Z,8.63
2023-04-26T21:55:27.761Z,7.96
2023-04-26T22:00:34.194Z,8.81
2023-04-26T22:05:37.467Z,8.86
2023-04-26T22:10:44.466Z,8.46
2023-04-26T22:15:48.961Z,8.75
2023-04-26T22:20:51.744Z,8.60
2023-04-26T22:25:54.576Z,8.66
2023-04-26T22:30:58.658Z,8.19
2023-04-26T22:36:01.384Z,7.12
2023-04-26T22:41:04.490Z,8.04
2023-04-26T22:46:09.601Z,8.07
2023-04-26T22:51:12.331Z,7.62
2023-04-26T22:56:15.030Z,8.14
2023-04-26T23:01:19.450Z,8.34
2023-04-26T23:06:22.132Z,8.11
2023-04-26T23:11:24.841Z,6.39
2023-04-26T23:16:28.938Z,7.83
2023-04-26T23:21:32.054Z,7.41
2023-04-26T23:26:34.793Z,7.37
2023-04-26T23:31:38.892Z,7.92
2023-04-26T23:36:42.065Z,7.83
2023-04-26T23:41:45.134Z,7.85
2023-04-26T23:46:49.638Z,7.79
2023-04-26T23:51:52.841Z,7.64
2023-04-26T23:56:55.688Z,7.59
